createdAt,value
2018-06-13T00:01:23.218Z,4.77
2018-06-13T00:03:51.618Z,4.17
2018-06-13T00:06:20.028Z,4.00
2018-06-13T00:08:48.367Z,4.30
2018-06-13T00:11:16.707Z,4.50
2018-06-13T00:13:45.060Z,3.93
2018-06-13T00:16:13.424Z,3.93
2018-06-13T00:18:41.829Z,3.83
2018-06-13T00:21:10.121Z,3.60
2018-06-13T00:23:38.457Z,3.63
2018-06-13T00:26:06.857Z,3.70
2018-06-13T00:28:35.259Z,3.50
2018-06-13T00:31:03.557Z,4.57
2018-06-13T00:33:31.916Z,3.57
2018-06-13T00:36:00.224Z,3.30
2018-06-13T00:38:28.714Z,3.40
2018-06-13T00:40:57.273Z,3.07
2018-06-13T00:43:25.673Z,2.90
2018-06-13T00:45:54.089Z,2.97
2018-06-13T00:48:22.432Z,3.03
2018-06-13T00:50:50.767Z,3.37
2018-06-13T00:53:19.100Z,3.10
2018-06-13T00:55:58.765Z,3.30
2018-06-13T00:58:27.090Z,2.80
2018-06-13T01:00:55.466Z,3.17
2018-06-13T01:03:23.816Z,3.30
2018-06-13T01:05:52.222Z,2.30
2018-06-13T01:08:20.604Z,3.03
2018-06-13T01:10:48.892Z,2.67
2018-06-13T01:13:17.271Z,3.13
2018-06-13T01:15:45.628Z,2.47
2018-06-13T01:18:13.979Z,2.07
2018-06-13T01:20:42.374Z,2.83
2018-06-13T01:23:10.777Z,3.20
2018-06-13T01:25:39.129Z,3.00
2018-06-13T01:28:07.432Z,2.50
2018-06-13T01:30:35.778Z,3.30
2018-06-13T01:33:04.151Z,2.77
2018-06-13T01:35:32.555Z,2.80
2018-06-13T01:38:00.976Z,2.83
2018-06-13T01:40:29.329Z,2.37
2018-06-13T01:42:57.623Z,2.70
2018-06-13T01:45:25.962Z,3.03
2018-06-13T01:47:54.360Z,2.73
2018-06-13T01:50:22.697Z,3.07
2018-06-13T01:52:51.010Z,3.10
2018-06-13T01:55:19.303Z,2.87
2018-06-13T01:57:47.651Z,3.03
2018-06-13T02:00:16.041Z,2.70
2018-06-13T02:02:44.420Z,2.60
2018-06-13T02:05:15.991Z,3.10
2018-06-13T02:07:44.870Z,3.17
2018-06-13T02:10:13.433Z,4.47
2018-06-13T02:12:41.767Z,3.40
2018-06-13T02:15:10.201Z,4.50
2018-06-13T02:17:39.081Z,5.13
2018-06-13T02:20:07.409Z,5.17
2018-06-13T02:22:35.742Z,3.63
2018-06-13T02:25:04.205Z,4.73
2018-06-13T02:27:32.652Z,4.27
2018-06-13T02:30:00.987Z,4.80
2018-06-13T02:32:29.347Z,4.63
2018-06-13T02:34:57.635Z,4.70
2018-06-13T02:37:26.016Z,4.87
2018-06-13T02:39:54.371Z,4.13
2018-06-13T02:42:22.682Z,4.57
2018-06-13T02:44:51.011Z,4.30
2018-06-13T02:47:19.392Z,4.17
2018-06-13T02:49:48.695Z,4.23
2018-06-13T02:52:17.025Z,3.77
2018-06-13T02:54:45.408Z,3.97
2018-06-13T02:57:13.759Z,4.10
2018-06-13T02:59:42.136Z,4.00
2018-06-13T03:02:10.527Z,3.83
2018-06-13T03:04:38.860Z,3.97
2018-06-13T03:07:07.203Z,4.03
2018-06-13T03:09:35.560Z,4.37
2018-06-13T03:12:03.951Z,3.87
2018-06-13T03:14:32.256Z,4.37
2018-06-13T03:17:01.411Z,3.73
2018-06-13T03:19:29.780Z,3.00
2018-06-13T03:21:58.087Z,4.07
2018-06-13T03:24:26.544Z,3.47
2018-06-13T03:26:54.939Z,3.83
2018-06-13T03:29:23.284Z,3.90
2018-06-13T03:31:51.644Z,3.70
2018-06-13T03:34:19.956Z,2.93
2018-06-13T03:36:48.337Z,3.40
2018-06-13T03:39:16.704Z,3.13
2018-06-13T03:41:45.096Z,3.03
2018-06-13T03:44:13.446Z,3.20
2018-06-13T03:46:41.788Z,3.33
2018-06-13T03:49:10.187Z,3.37
2018-06-13T03:51:38.528Z,3.50
2018-06-13T03:54:07.011Z,2.80
2018-06-13T03:56:35.351Z,3.10
2018-06-13T03:59:03.650Z,2.80
2018-06-13T04:01:32.031Z,3.17
2018-06-13T04:04:00.364Z,4.27
2018-06-13T04:06:28.707Z,3.60
2018-06-13T04:08:57.034Z,3.50
2018-06-13T04:11:25.343Z,3.80
2018-06-13T04:13:53.672Z,3.50
2018-06-13T04:16:21.984Z,4.40
2018-06-13T04:18:50.313Z,4.13
2018-06-13T04:21:18.656Z,3.70
2018-06-13T04:23:47.100Z,3.77
2018-06-13T04:26:15.403Z,3.27
2018-06-13T04:28:45.399Z,2.90
2018-06-13T04:31:13.694Z,3.67
2018-06-13T04:33:42.072Z,2.90
2018-06-13T04:36:10.480Z,2.93
2018-06-13T04:38:38.859Z,3.50
2018-06-13T04:41:07.339Z,3.00
2018-06-13T04:43:35.679Z,2.57
2018-06-13T04:46:05.861Z,3.73
2018-06-13T04:48:34.195Z,2.77
2018-06-13T04:51:02.547Z,3.03
2018-06-13T04:53:31.267Z,2.70
2018-06-13T04:55:59.579Z,2.60
2018-06-13T04:58:27.915Z,4.80
2018-06-13T05:00:56.273Z,3.20
2018-06-13T05:03:24.559Z,2.87
2018-06-13T05:05:52.911Z,2.67
2018-06-13T05:08:21.211Z,2.60
2018-06-13T05:10:49.566Z,3.13
2018-06-13T05:13:17.852Z,2.80
2018-06-13T05:15:46.192Z,2.77
2018-06-13T05:18:14.498Z,3.13
2018-06-13T05:20:42.843Z,2.33
2018-06-13T05:23:11.235Z,2.80
2018-06-13T05:25:39.546Z,2.67
2018-06-13T05:28:07.901Z,3.30
2018-06-13T05:30:36.211Z,3.10
2018-06-13T05:33:04.573Z,2.87
2018-06-13T05:35:32.947Z,3.63
2018-06-13T05:38:01.259Z,4.20
2018-06-13T05:40:29.599Z,3.93
2018-06-13T05:42:57.894Z,4.10
2018-06-13T05:45:26.254Z,3.40
2018-06-13T05:47:54.574Z,3.87
2018-06-13T05:50:23.002Z,3.93
2018-06-13T05:52:51.335Z,4.60
2018-06-13T05:55:19.651Z,4.83
2018-06-13T05:57:47.971Z,4.37
2018-06-13T06:00:16.326Z,4.47
2018-06-13T06:02:44.651Z,3.87
2018-06-13T06:05:13.015Z,3.70
2018-06-13T06:07:41.338Z,3.63
2018-06-13T06:10:09.730Z,3.30
2018-06-13T06:12:37.969Z,3.10
2018-06-13T06:15:06.304Z,2.80
2018-06-13T06:17:34.595Z,2.80
2018-06-13T06:20:02.976Z,2.93
2018-06-13T06:22:31.272Z,3.43
2018-06-13T06:24:59.567Z,3.27
2018-06-13T06:27:27.872Z,3.13
2018-06-13T06:29:56.200Z,2.83
2018-06-13T06:32:24.664Z,2.70
2018-06-13T06:34:52.976Z,3.60
2018-06-13T06:37:21.284Z,3.03
2018-06-13T06:39:49.604Z,3.80
2018-06-13T06:42:17.920Z,3.43
2018-06-13T06:44:47.278Z,3.13
2018-06-13T06:47:15.575Z,3.70
2018-06-13T06:49:43.940Z,3.60
2018-06-13T06:52:12.228Z,3.60
2018-06-13T06:54:40.523Z,3.43
2018-06-13T06:57:08.870Z,3.70
2018-06-13T06:59:37.173Z,3.53
2018-06-13T07:02:05.557Z,3.67
2018-06-13T07:04:34.527Z,4.80
2018-06-13T07:07:02.905Z,3.60
2018-06-13T07:09:31.261Z,4.10
2018-06-13T07:11:59.587Z,4.07
2018-06-13T07:14:28.570Z,3.13
2018-06-13T07:16:56.923Z,4.03
2018-06-13T07:19:25.236Z,4.53
2018-06-13T07:21:53.555Z,3.40
2018-06-13T07:24:21.961Z,2.77
2018-06-13T07:26:50.285Z,3.90
2018-06-13T07:29:18.677Z,3.10
2018-06-13T07:31:47.107Z,2.70
2018-06-13T07:34:15.446Z,3.17
2018-06-13T07:36:43.727Z,2.80
2018-06-13T07:39:12.063Z,2.70
2018-06-13T07:41:40.391Z,2.73
2018-06-13T07:44:08.751Z,2.73
2018-06-13T07:46:37.124Z,2.13
2018-06-13T07:49:05.441Z,2.80
2018-06-13T07:51:33.743Z,2.57
2018-06-13T07:54:02.059Z,2.40
2018-06-13T07:56:30.414Z,1.90
2018-06-13T07:58:58.751Z,2.50
2018-06-13T08:01:27.051Z,2.57
2018-06-13T08:03:55.331Z,3.80
2018-06-13T08:06:23.653Z,4.70
2018-06-13T08:08:52.000Z,5.20
2018-06-13T08:11:20.295Z,6.87
2018-06-13T08:13:48.594Z,7.20
2018-06-13T08:16:16.921Z,6.57
2018-06-13T08:18:45.294Z,6.70
2018-06-13T08:21:13.723Z,7.20
2018-06-13T08:23:42.112Z,6.77
2018-06-13T08:26:10.446Z,6.80
2018-06-13T08:28:38.743Z,7.40
2018-06-13T08:31:07.323Z,6.67
2018-06-13T08:33:35.654Z,6.47
2018-06-13T08:36:03.979Z,7.40
2018-06-13T08:38:32.297Z,6.87
2018-06-13T08:41:00.647Z,6.57
2018-06-13T08:43:29.004Z,5.23
2018-06-13T08:45:57.300Z,4.30
2018-06-13T08:48:25.699Z,3.93
2018-06-13T08:50:54.020Z,3.43
2018-06-13T08:53:22.327Z,3.10
2018-06-13T08:55:50.630Z,2.87
2018-06-13T08:58:18.979Z,3.30
2018-06-13T09:00:47.360Z,3.27
2018-06-13T09:03:15.795Z,3.03
2018-06-13T09:05:44.132Z,2.87
2018-06-13T09:08:12.427Z,2.70
2018-06-13T09:10:40.751Z,2.30
2018-06-13T09:13:09.116Z,2.97
2018-06-13T09:15:37.419Z,2.10
2018-06-13T09:18:05.787Z,2.67
2018-06-13T09:20:34.126Z,2.77
2018-06-13T09:23:02.543Z,2.53
2018-06-13T09:25:30.880Z,2.50
2018-06-13T09:27:59.207Z,2.60
2018-06-13T09:30:27.557Z,2.90
2018-06-13T09:32:55.864Z,2.70
2018-06-13T09:35:24.159Z,2.63
2018-06-13T09:37:52.491Z,2.30
2018-06-13T09:40:20.815Z,2.63
2018-06-13T09:42:49.259Z,2.60
2018-06-13T09:45:17.591Z,2.37
2018-06-13T09:47:45.933Z,2.07
2018-06-13T09:50:14.249Z,2.00
2018-06-13T09:52:42.570Z,2.40
2018-06-13T09:55:10.899Z,3.00
2018-06-13T09:57:39.322Z,3.77
2018-06-13T10:00:12.899Z,3.97
2018-06-13T10:02:41.216Z,3.30
2018-06-13T10:05:09.591Z,4.13
2018-06-13T10:07:38.679Z,3.57
2018-06-13T10:10:07.100Z,3.77
2018-06-13T10:12:35.411Z,4.30
2018-06-13T10:15:03.867Z,3.97
2018-06-13T10:17:32.216Z,4.47
2018-06-13T10:20:00.557Z,4.00
2018-06-13T10:22:28.960Z,4.00
2018-06-13T10:24:57.329Z,5.23
2018-06-13T10:27:30.926Z,4.23
2018-06-13T10:29:59.274Z,5.73
2018-06-13T10:32:27.804Z,5.73
2018-06-13T10:34:56.167Z,4.20
2018-06-13T10:37:24.627Z,3.87
2018-06-13T10:39:52.931Z,3.80
2018-06-13T10:42:21.305Z,4.83
2018-06-13T10:44:49.653Z,4.77
2018-06-13T10:47:18.077Z,5.73
2018-06-13T10:49:46.442Z,5.50
2018-06-13T10:52:14.752Z,6.17
2018-06-13T10:54:43.097Z,6.53
2018-06-13T10:57:11.426Z,6.27
2018-06-13T10:59:39.781Z,6.60
2018-06-13T11:02:08.343Z,4.80
2018-06-13T11:04:36.641Z,4.70
2018-06-13T11:07:05.008Z,5.00
2018-06-13T11:09:33.337Z,4.50
2018-06-13T11:12:01.657Z,4.87
2018-06-13T11:14:30.056Z,4.57
2018-06-13T11:16:58.468Z,4.67
2018-06-13T11:19:26.828Z,4.30
2018-06-13T11:21:55.147Z,4.10
2018-06-13T11:24:23.461Z,3.00
2018-06-13T11:26:51.788Z,3.03
2018-06-13T11:29:20.178Z,2.13
2018-06-13T11:31:48.544Z,2.00
2018-06-13T11:34:16.888Z,2.07
2018-06-13T11:36:46.487Z,2.00
2018-06-13T11:39:14.808Z,2.30
2018-06-13T11:41:43.142Z,2.67
2018-06-13T11:44:11.516Z,2.23
2018-06-13T11:46:39.933Z,2.60
2018-06-13T11:49:08.591Z,2.53
2018-06-13T11:51:36.907Z,2.60
2018-06-13T11:54:05.315Z,2.80
2018-06-13T11:56:33.811Z,3.60
2018-06-13T11:59:02.413Z,2.70
2018-06-13T12:01:30.824Z,1.73
2018-06-13T12:03:59.163Z,2.53
2018-06-13T12:06:27.598Z,2.40
2018-06-13T12:08:55.912Z,2.27
2018-06-13T12:11:24.231Z,2.00
2018-06-13T12:13:53.264Z,2.23
2018-06-13T12:16:21.586Z,2.00
2018-06-13T12:18:50.159Z,4.30
2018-06-13T12:21:18.491Z,2.17
2018-06-13T12:23:46.798Z,2.00
2018-06-13T12:26:15.167Z,2.70
2018-06-13T12:28:43.530Z,2.60
2018-06-13T12:31:11.934Z,3.17
2018-06-13T12:33:40.264Z,2.73
2018-06-13T12:36:08.579Z,2.70
2018-06-13T12:38:36.951Z,2.53
2018-06-13T12:41:05.348Z,2.97
2018-06-13T12:43:33.724Z,2.33
2018-06-13T12:46:02.040Z,2.33
2018-06-13T12:48:30.414Z,2.23
2018-06-13T12:50:58.806Z,1.93
2018-06-13T12:53:27.067Z,1.80
2018-06-13T12:55:55.427Z,2.07
2018-06-13T12:58:23.836Z,1.73
2018-06-13T13:00:52.153Z,1.40
2018-06-13T13:03:20.447Z,2.03
2018-06-13T13:05:48.885Z,2.10
2018-06-13T13:08:17.264Z,2.00
2018-06-13T13:10:45.607Z,1.87
2018-06-13T13:13:13.927Z,2.10
2018-06-13T13:15:42.300Z,2.00
2018-06-13T13:18:10.607Z,2.20
2018-06-13T13:20:38.975Z,2.00
2018-06-13T13:23:07.342Z,2.33
2018-06-13T13:25:35.764Z,2.10
2018-06-13T13:28:04.175Z,1.97
2018-06-13T13:30:32.479Z,2.30
2018-06-13T13:33:00.813Z,2.17
2018-06-13T13:35:29.194Z,2.10
2018-06-13T13:37:57.541Z,2.33
2018-06-13T13:40:25.983Z,1.80
2018-06-13T13:42:54.373Z,2.70
2018-06-13T13:45:22.720Z,2.37
2018-06-13T13:47:51.076Z,2.23
2018-06-13T13:50:19.368Z,2.07
2018-06-13T13:52:47.699Z,2.70
2018-06-13T13:55:16.073Z,2.30
2018-06-13T13:57:44.628Z,2.80
2018-06-13T14:00:13.188Z,2.47
2018-06-13T14:02:41.774Z,2.40
2018-06-13T14:05:10.530Z,2.33
2018-06-13T14:07:38.893Z,2.23
2018-06-13T14:10:07.239Z,1.90
2018-06-13T14:12:35.614Z,1.70
2018-06-13T14:15:04.080Z,2.07
2018-06-13T14:17:32.412Z,2.60
2018-06-13T14:20:00.746Z,2.07
2018-06-13T14:22:29.209Z,3.73
2018-06-13T14:24:57.471Z,2.20
2018-06-13T14:27:25.812Z,2.13
2018-06-13T14:29:54.156Z,2.10
2018-06-13T14:32:22.465Z,2.27
2018-06-13T14:34:50.832Z,1.70
2018-06-13T14:37:19.312Z,1.90
2018-06-13T14:39:47.629Z,2.30
2018-06-13T14:42:16.020Z,1.90
2018-06-13T14:44:44.448Z,1.77
2018-06-13T14:47:12.793Z,1.53
2018-06-13T14:49:41.247Z,1.67
2018-06-13T14:52:09.689Z,2.13
2018-06-13T14:54:37.980Z,2.00
2018-06-13T14:57:06.564Z,1.70
2018-06-13T14:59:35.188Z,2.00
2018-06-13T15:02:03.560Z,2.00
2018-06-13T15:04:33.651Z,2.20
2018-06-13T15:07:02.819Z,2.07
2018-06-13T15:09:31.194Z,2.60
2018-06-13T15:11:59.539Z,2.40
2018-06-13T15:14:27.955Z,2.30
2018-06-13T15:16:57.256Z,2.07
2018-06-13T15:19:25.676Z,2.37
2018-06-13T15:21:54.020Z,2.30
2018-06-13T15:24:22.592Z,2.17
2018-06-13T15:26:51.072Z,2.10
2018-06-13T15:29:19.412Z,2.10
2018-06-13T15:31:47.836Z,1.70
2018-06-13T15:34:16.175Z,1.60
2018-06-13T15:36:44.525Z,1.70
2018-06-13T15:39:14.192Z,2.00
2018-06-13T15:41:43.079Z,1.40
2018-06-13T15:44:11.428Z,1.50
2018-06-13T15:46:39.776Z,1.77
2018-06-13T15:49:08.187Z,1.43
2018-06-13T15:51:36.624Z,1.60
2018-06-13T15:54:05.084Z,2.10
2018-06-13T15:56:33.446Z,2.27
2018-06-13T15:59:02.447Z,2.27
2018-06-13T16:01:31.147Z,1.87
2018-06-13T16:03:59.471Z,1.70
2018-06-13T16:06:27.894Z,1.50
2018-06-13T16:08:56.224Z,2.00
2018-06-13T16:11:24.560Z,1.60
2018-06-13T16:13:53.235Z,1.57
2018-06-13T16:16:21.557Z,1.37
2018-06-13T16:18:50.200Z,1.50
2018-06-13T16:21:18.583Z,1.67
2018-06-13T16:23:46.943Z,1.80
2018-06-13T16:26:15.251Z,1.83
2018-06-13T16:28:43.616Z,1.67
2018-06-13T16:31:11.988Z,1.13
2018-06-13T16:33:40.372Z,1.90
2018-06-13T16:36:08.784Z,1.30
2018-06-13T16:38:37.142Z,1.33
2018-06-13T16:41:05.593Z,2.00
2018-06-13T16:43:34.028Z,1.57
2018-06-13T16:46:02.355Z,1.67
2018-06-13T16:48:30.733Z,1.80
2018-06-13T16:51:10.387Z,1.87
2018-06-13T16:53:47.008Z,1.40
2018-06-13T16:56:16.308Z,2.20
2018-06-13T16:58:44.640Z,1.87
2018-06-13T17:01:13.050Z,1.90
2018-06-13T17:03:41.348Z,1.70
2018-06-13T17:06:09.688Z,1.73
2018-06-13T17:08:38.059Z,1.70
2018-06-13T17:11:06.459Z,1.40
2018-06-13T17:13:34.908Z,1.40
2018-06-13T17:16:03.400Z,1.27
2018-06-13T17:18:31.703Z,1.77
2018-06-13T17:21:00.139Z,1.60
2018-06-13T17:23:28.515Z,1.70
2018-06-13T17:25:59.755Z,1.60
2018-06-13T17:28:28.100Z,1.47
2018-06-13T17:30:56.715Z,2.03
2018-06-13T17:33:25.055Z,1.77
2018-06-13T17:35:53.400Z,1.83
2018-06-13T17:38:22.020Z,1.70
2018-06-13T17:40:50.424Z,1.83
2018-06-13T17:43:18.782Z,2.10
2018-06-13T17:45:47.099Z,1.93
2018-06-13T17:48:15.533Z,1.73
2018-06-13T17:50:43.862Z,1.50
2018-06-13T17:53:12.233Z,2.27
2018-06-13T17:55:40.643Z,2.20
2018-06-13T17:58:09.004Z,2.00
2018-06-13T18:00:37.380Z,1.50
2018-06-13T18:03:05.810Z,2.17
2018-06-13T18:05:34.117Z,1.70
2018-06-13T18:08:02.448Z,1.50
2018-06-13T18:10:30.796Z,1.70
2018-06-13T18:12:59.422Z,1.60
2018-06-13T18:15:28.825Z,1.43
2018-06-13T18:17:57.203Z,1.47
2018-06-13T18:20:25.723Z,1.40
2018-06-13T18:22:54.020Z,1.63
2018-06-13T18:25:22.341Z,1.77
2018-06-13T18:27:50.688Z,1.60
2018-06-13T18:30:19.116Z,1.60
2018-06-13T18:32:47.558Z,1.67
2018-06-13T18:35:16.043Z,1.43
2018-06-13T18:37:44.563Z,1.60
2018-06-13T18:40:13.006Z,1.60
2018-06-13T18:42:41.387Z,1.70
2018-06-13T18:45:09.783Z,1.90
2018-06-13T18:47:38.142Z,1.30
2018-06-13T18:50:06.476Z,1.53
2018-06-13T18:52:34.779Z,1.83
2018-06-13T18:55:03.311Z,1.80
2018-06-13T18:57:31.723Z,1.70
2018-06-13T19:00:00.723Z,1.97
2018-06-13T19:02:29.131Z,1.90
2018-06-13T19:04:58.435Z,2.00
2018-06-13T19:07:26.847Z,2.03
2018-06-13T19:09:55.203Z,1.70
2018-06-13T19:12:24.831Z,2.00
2018-06-13T19:14:53.178Z,2.03
2018-06-13T19:17:21.543Z,1.80
2018-06-13T19:19:50.359Z,2.10
2018-06-13T19:22:18.946Z,1.77
2018-06-13T19:24:47.300Z,1.80
2018-06-13T19:27:15.683Z,2.00
2018-06-13T19:29:44.047Z,1.77
2018-06-13T19:32:12.529Z,1.83
2018-06-13T19:34:40.972Z,1.87
2018-06-13T19:37:09.353Z,1.60
2018-06-13T19:39:37.652Z,1.70
2018-06-13T19:42:06.104Z,1.97
2018-06-13T19:44:34.419Z,1.80
2018-06-13T19:47:07.979Z,1.83
2018-06-13T19:49:36.355Z,2.33
2018-06-13T19:52:04.697Z,1.93
2018-06-13T19:54:38.205Z,1.70
2018-06-13T19:57:06.564Z,1.50
2018-06-13T19:59:34.924Z,1.90
2018-06-13T20:02:03.354Z,1.63
2018-06-13T20:04:37.088Z,1.73
2018-06-13T20:07:05.491Z,2.20
2018-06-13T20:09:33.851Z,1.70
2018-06-13T20:12:07.332Z,2.07
2018-06-13T20:14:41.135Z,2.10
2018-06-13T20:17:14.777Z,2.13
2018-06-13T20:19:43.822Z,1.80
2018-06-13T20:22:12.110Z,2.13
2018-06-13T20:24:40.474Z,1.73
2018-06-13T20:27:14.136Z,1.93
2018-06-13T20:29:47.884Z,2.00
2018-06-13T20:32:16.191Z,1.73
2018-06-13T20:34:44.533Z,2.50
2018-06-13T20:37:12.865Z,2.67
2018-06-13T20:39:41.252Z,2.73
2018-06-13T20:42:09.626Z,2.33
2018-06-13T20:44:37.973Z,2.37
2018-06-13T20:47:06.516Z,2.60
2018-06-13T20:49:34.826Z,2.60
2018-06-13T20:52:03.213Z,2.33
2018-06-13T20:54:31.546Z,2.70
2018-06-13T20:56:59.859Z,2.50
2018-06-13T20:59:28.187Z,2.40
2018-06-13T21:01:57.216Z,2.07
2018-06-13T21:04:25.513Z,2.33
2018-06-13T21:06:53.818Z,2.63
2018-06-13T21:09:22.123Z,2.43
2018-06-13T21:11:51.526Z,2.40
2018-06-13T21:14:20.728Z,2.60
2018-06-13T21:16:49.083Z,2.57
2018-06-13T21:19:17.384Z,2.80
2018-06-13T21:21:45.730Z,2.90
2018-06-13T21:24:14.047Z,3.33
2018-06-13T21:26:42.453Z,3.23
2018-06-13T21:29:10.727Z,2.60
2018-06-13T21:31:39.043Z,2.60
2018-06-13T21:34:07.367Z,2.80
2018-06-13T21:36:35.717Z,3.20
2018-06-13T21:39:05.559Z,3.37
2018-06-13T21:41:33.925Z,2.80
2018-06-13T21:44:02.323Z,3.00
2018-06-13T21:46:30.603Z,3.03
2018-06-13T21:48:58.940Z,2.73
2018-06-13T21:51:27.321Z,3.10
2018-06-13T21:53:55.698Z,2.70
2018-06-13T21:56:24.266Z,2.73
2018-06-13T21:58:53.174Z,2.77
2018-06-13T22:01:21.603Z,2.73
2018-06-13T22:03:49.911Z,2.80
2018-06-13T22:06:18.252Z,2.70
2018-06-13T22:08:46.587Z,3.10
2018-06-13T22:11:14.915Z,3.53
2018-06-13T22:13:43.332Z,2.90
2018-06-13T22:16:11.680Z,3.00
2018-06-13T22:18:40.009Z,2.63
2018-06-13T22:21:08.311Z,2.43
2018-06-13T22:23:36.663Z,3.20
2018-06-13T22:26:04.992Z,3.00
2018-06-13T22:28:33.372Z,3.20
2018-06-13T22:31:01.709Z,3.33
2018-06-13T22:33:30.027Z,4.07
2018-06-13T22:35:58.423Z,3.43
2018-06-13T22:38:26.835Z,3.23
2018-06-13T22:40:55.168Z,3.07
2018-06-13T22:43:23.504Z,3.23
2018-06-13T22:45:51.890Z,2.90
2018-06-13T22:48:20.247Z,3.20
2018-06-13T22:50:48.622Z,2.70
2018-06-13T22:53:17.045Z,3.10
2018-06-13T22:55:45.339Z,2.93
2018-06-13T22:58:13.750Z,3.20
2018-06-13T23:01:04.785Z,2.70
2018-06-13T23:03:33.482Z,2.50
2018-06-13T23:06:05.168Z,3.40
2018-06-13T23:08:34.297Z,3.40
2018-06-13T23:11:02.708Z,2.70
2018-06-13T23:13:31.067Z,2.80
2018-06-13T23:15:59.432Z,2.80
2018-06-13T23:18:29.192Z,3.30
2018-06-13T23:20:57.643Z,3.20
2018-06-13T23:23:26.020Z,3.43
2018-06-13T23:25:55.439Z,3.33
2018-06-13T23:28:24.859Z,2.90
2018-06-13T23:30:53.331Z,3.00
2018-06-13T23:33:21.683Z,2.83
2018-06-13T23:35:49.971Z,3.00
2018-06-13T23:38:18.342Z,2.97
2018-06-13T23:40:46.948Z,3.20
2018-06-13T23:43:15.330Z,2.80
2018-06-13T23:45:43.754Z,3.03
2018-06-13T23:48:12.187Z,3.27
2018-06-13T23:50:40.524Z,2.80
2018-06-13T23:53:08.844Z,2.90
2018-06-13T23:55:37.245Z,2.90
2018-06-13T23:58:05.633Z,3.00
